Patricia Anne — WDF9428 — position and weather

sailwx.info

Track history (hours):
 
Tides and Currents Weather Stations Pressure Air Temp Water Temp Dewpoint Dewpoint Depression Visibility Wind Speed Wind Dir Waves Ship Positions

Patricia Anne

Owner: Genesis Marine, LLC, Houston, TX. More information available from US FCC via Universal Licensing System and Coast Guard Vessel Documentation Center.

Last reported at 2018-Jun-22 18:11 UTC. Time now 2018-Jun-22 18:54 UTC.
Position N 29°42' W 094°59'.

Length 26 m; draft 3 m.

Type: Towing. MMSI: 367505060.

Date/timePositionNaut miles runAvg speedWind from/ knotsBaromVisibWave heightAir tempDewpointWater temp
2018-Jun-22 18:11N 29°42' W 094°59'2 4.7
2018-Jun-22 17:41N 29°39' W 094°58'1 4.7
2018-Jun-22 17:23N 29°38' W 094°58'2 4.8
2018-Jun-22 16:58N 29°36' W 094°57'10 4.8
2018-Jun-22 14:57N 29°28' W 094°51'4 4.8
2018-Jun-22 14:10N 29°25' W 094°49'1 5.1
2018-Jun-22 14:00N 29°24' W 094°49'2 4.2
2018-Jun-22 13:30N 29°22' W 094°49'3 5.3
2018-Jun-22 13:00N 29°23' W 094°52'2 3.6
2018-Jun-22 12:30N 29°22' W 094°53'1 1.9
2018-Jun-22 11:58N 29°22' W 094°55'0 0.0
2018-Jun-22 11:30N 29°22' W 094°55'0 0.0
2018-Jun-22 11:01N 29°22' W 094°55'0 0.0
2018-Jun-22 10:30N 29°22' W 094°55'0 0.0
2018-Jun-22 10:00N 29°22' W 094°55'0 0.0
2018-Jun-22 09:30N 29°22' W 094°55'0 0.0
2018-Jun-22 08:59N 29°22' W 094°55'0 0.0
2018-Jun-22 08:30N 29°22' W 094°55'0 0.0
2018-Jun-22 08:00N 29°22' W 094°55'0 0.0
2018-Jun-22 07:30N 29°22' W 094°55'0 0.0
2018-Jun-22 07:00N 29°22' W 094°55'0 0.0
2018-Jun-22 06:30N 29°22' W 094°55'0 0.0
2018-Jun-22 06:01N 29°22' W 094°55'0 0.0
2018-Jun-22 05:30N 29°22' W 094°55'0 0.0
2018-Jun-22 05:01N 29°22' W 094°55'0 0.0
2018-Jun-22 04:30N 29°22' W 094°55'0 0.0
2018-Jun-22 04:00N 29°22' W 094°55'0 0.0
2018-Jun-22 03:29N 29°22' W 094°55'0 0.0
2018-Jun-22 03:00N 29°22' W 094°55'0 0.0
2018-Jun-22 02:30N 29°22' W 094°55'0 0.0
2018-Jun-22 02:00N 29°22' W 094°55'0 0.0
2018-Jun-22 01:30N 29°22' W 094°55'0 0.0
2018-Jun-22 01:00N 29°22' W 094°55'0 0.0
2018-Jun-22 00:30N 29°22' W 094°55'0 0.0
2018-Jun-21 23:59N 29°22' W 094°55'0 0.0
2018-Jun-21 23:30N 29°22' W 094°55'0 0.0
2018-Jun-21 23:00N 29°22' W 094°55'0 0.0
2018-Jun-21 22:30N 29°22' W 094°55'0 0.0
2018-Jun-21 22:00N 29°22' W 094°55'0 0.0
2018-Jun-21 21:30N 29°22' W 094°55'0 0.0
2018-Jun-21 21:00N 29°22' W 094°55'0 0.0
2018-Jun-21 20:30N 29°22' W 094°55'0 0.0
2018-Jun-21 19:59N 29°22' W 094°55'0 0.0
2018-Jun-21 19:30N 29°22' W 094°55'0 0.0
2018-Jun-21 19:00N 29°22' W 094°55'0 0.0
2018-Jun-21 18:30N 29°22' W 094°55'0 0.0
2018-Jun-21 18:00N 29°22' W 094°55'0 0.0
2018-Jun-21 17:29N 29°22' W 094°55'0 0.0
2018-Jun-21 17:00N 29°22' W 094°55'1 2.7
2018-Jun-21 16:30N 29°22' W 094°53'3 5.6
2018-Jun-21 16:00N 29°22' W 094°50'3 6.2
2018-Jun-21 15:30N 29°23' W 094°47'3 5.2
2018-Jun-21 14:59N 29°25' W 094°44'0 0.4
2018-Jun-21 14:30N 29°25' W 094°44'0 0.0
2018-Jun-21 14:00N 29°25' W 094°44'0 0.0
2018-Jun-21 13:30N 29°25' W 094°44'0 0.0
2018-Jun-21 13:00N 29°25' W 094°44'0 0.1
2018-Jun-21 12:30N 29°25' W 094°44'0 0.0
2018-Jun-21 08:46N 29°24' W 094°44'0 0.0
2018-Jun-21 08:28N 29°24' W 094°44'0 0.0
2018-Jun-21 07:48N 29°24' W 094°44'0 0.0
2018-Jun-21 07:25N 29°24' W 094°44'0 0.0
2018-Jun-21 06:55N 29°24' W 094°44'0 0.0
2018-Jun-21 06:28N 29°24' W 094°44'0 0.0
2018-Jun-21 05:49N 29°24' W 094°44'0 0.0
2018-Jun-21 05:26N 29°24' W 094°44'0 0.0
2018-Jun-21 05:00N 29°24' W 094°44'0 0.0
2018-Jun-21 04:23N 29°24' W 094°44'1 1.6
2018-Jun-21 03:58N 29°24' W 094°45'1 3.0
2018-Jun-21 03:30N 29°23' W 094°46'0 0.0
2018-Jun-21 03:00N 29°23' W 094°46'0 0.0
2018-Jun-21 02:30N 29°23' W 094°46'0 0.0
2018-Jun-21 02:00N 29°23' W 094°46'0 0.0
2018-Jun-21 01:30N 29°23' W 094°46'0 0.0
2018-Jun-21 01:00N 29°23' W 094°46'0 0.0
2018-Jun-21 00:29N 29°23' W 094°46'0 0.0
2018-Jun-20 23:57N 29°23' W 094°46'0 0.0
2018-Jun-20 23:30N 29°23' W 094°46'0 0.0
2018-Jun-20 22:55N 29°23' W 094°46'0 0.0
2018-Jun-20 22:30N 29°23' W 094°46'0 0.0
2018-Jun-20 22:00N 29°23' W 094°46'0 0.0
2018-Jun-20 21:30N 29°23' W 094°46'0 0.0
2018-Jun-20 21:00N 29°23' W 094°46'0 0.0
2018-Jun-20 20:30N 29°23' W 094°46'0 0.0
2018-Jun-20 20:00N 29°23' W 094°46'0 0.0
2018-Jun-20 19:30N 29°23' W 094°46'0 0.0
2018-Jun-20 18:57N 29°23' W 094°46'0 0.0
2018-Jun-20 18:30N 29°23' W 094°46'0 0.0
2018-Jun-20 18:00N 29°23' W 094°46'0 0.0
2018-Jun-20 17:30N 29°23' W 094°46'0 0.0
2018-Jun-20 17:00N 29°23' W 094°46'0 0.0
2018-Jun-20 16:30N 29°23' W 094°46'0 0.0
2018-Jun-20 16:00N 29°23' W 094°46'0 0.0
2018-Jun-20 15:30N 29°23' W 094°46'2 0.8
2018-Jun-20 12:46N 29°24' W 094°44'0 0.0
2018-Jun-20 10:47N 29°24' W 094°44'0 0.0
2018-Jun-20 09:55N 29°24' W 094°44'0 0.0
2018-Jun-20 09:28N 29°24' W 094°44'0 0.0
2018-Jun-20 09:00N 29°24' W 094°44'0 0.0
2018-Jun-20 08:30N 29°24' W 094°44'0 0.0
2018-Jun-20 07:59N 29°24' W 094°44'0 0.0
2018-Jun-20 01:25N 29°24' W 094°44'0 0.0
2018-Jun-20 00:56N 29°24' W 094°44'0 0.0
2018-Jun-20 00:30N 29°24' W 094°44'0 0.0
2018-Jun-19 23:46N 29°24' W 094°44'0 0.0
2018-Jun-19 23:23N 29°24' W 094°44'0 0.0
2018-Jun-19 22:38N 29°24' W 094°44'0 0.0
2018-Jun-19 22:30N 29°24' W 094°44'0 0.0
2018-Jun-19 21:39N 29°24' W 094°44'0 0.0
2018-Jun-19 21:30N 29°24' W 094°44'0 0.0
2018-Jun-19 21:00N 29°24' W 094°44'0 0.3
2018-Jun-19 20:30N 29°24' W 094°45'0 0.0
2018-Jun-19 19:58N 29°24' W 094°45'0 0.0
2018-Jun-19 19:30N 29°24' W 094°45'0 0.0
2018-Jun-19 18:59N 29°24' W 094°45'0 0.3
2018-Jun-19 18:30N 29°24' W 094°44'0 0.0
2018-Jun-19 18:00N 29°24' W 094°44'0 0.0
2018-Jun-19 17:25N 29°24' W 094°44'0 0.0
2018-Jun-19 16:58N 29°24' W 094°44'0 0.0
2018-Jun-19 16:29N 29°24' W 094°44'0 0.0
2018-Jun-19 15:50N 29°24' W 094°44'0 0.0
2018-Jun-19 09:23N 29°24' W 094°44'0 0.0
2018-Jun-19 08:58N 29°24' W 094°44'0 0.0
2018-Jun-19 08:29N 29°24' W 094°44'0 0.0
2018-Jun-19 07:47N 29°24' W 094°44'0 0.0
2018-Jun-19 07:22N 29°24' W 094°44'0 0.0
2018-Jun-19 06:56N 29°24' W 094°44'0 0.0
2018-Jun-19 06:27N 29°24' W 094°44'0 0.0
2018-Jun-19 05:59N 29°24' W 094°44'0 0.0
2018-Jun-19 04:02N 29°24' W 094°44'0 0.0
2018-Jun-19 03:59N 29°24' W 094°44'0 0.0
2018-Jun-19 03:28N 29°24' W 094°44'0 0.0
2018-Jun-19 02:55N 29°24' W 094°44'0 0.0
2018-Jun-19 02:23N 29°24' W 094°44'0 0.0
2018-Jun-19 01:52N 29°24' W 094°44'0 0.0
2018-Jun-19 01:25N 29°24' W 094°44'0 0.0
2018-Jun-19 00:21N 29°24' W 094°44'0 0.0
2018-Jun-18 23:59N 29°24' W 094°44'0 0.0
2018-Jun-18 23:27N 29°24' W 094°44'0 0.0
2018-Jun-18 22:59N 29°24' W 094°44'0 0.0
2018-Jun-18 22:30N 29°24' W 094°44'0 0.0
2018-Jun-18 21:57N 29°24' W 094°44'0 0.0
2018-Jun-18 21:29N 29°24' W 094°44'0 0.0
2018-Jun-18 20:58N 29°24' W 094°44'0 0.0
2018-Jun-18 20:30N 29°24' W 094°44'0 0.0
2018-Jun-18 19:58N 29°24' W 094°44'0 0.0
2018-Jun-18 19:24N 29°24' W 094°44'1 2.7
2018-Jun-18 18:55N 29°24' W 094°46'0 0.6
2018-Jun-18 18:30N 29°24' W 094°45'1 0.7
2018-Jun-18 17:04N 29°24' W 094°44'0 0.0
2018-Jun-18 16:47N 29°24' W 094°44'0 0.0
2018-Jun-18 16:30N 29°24' W 094°44'0 0.0
2018-Jun-18 15:55N 29°24' W 094°44'0 0.0
2018-Jun-18 15:30N 29°24' W 094°44'0 0.0
2018-Jun-18 14:54N 29°24' W 094°44'0 0.0
2018-Jun-18 14:29N 29°24' W 094°44'0 0.0
2018-Jun-18 13:54N 29°24' W 094°44'0 0.0
2018-Jun-18 13:29N 29°24' W 094°44'0 0.0
2018-Jun-18 12:59N 29°24' W 094°44'0 0.0
2018-Jun-18 12:26N 29°24' W 094°44'0 0.0
2018-Jun-18 12:00N 29°24' W 094°44'0 0.0
2018-Jun-18 11:27N 29°24' W 094°44'0 0.0
2018-Jun-18 10:59N 29°24' W 094°44'0 0.0
2018-Jun-18 10:30N 29°24' W 094°44'0 0.0
2018-Jun-18 09:58N 29°24' W 094°44'0 0.0
2018-Jun-18 09:26N 29°24' W 094°44'0 0.0
2018-Jun-18 08:55N 29°24' W 094°44'0 0.0
2018-Jun-18 08:30N 29°24' W 094°44'0 0.0
2018-Jun-18 07:59N 29°24' W 094°44'0 0.0
2018-Jun-18 07:28N 29°24' W 094°44'0 0.0
2018-Jun-18 07:00N 29°24' W 094°44'0 0.0
2018-Jun-18 06:08N 29°24' W 094°44'0 0.0
2018-Jun-18 05:52N 29°24' W 094°44'0 0.0
2018-Jun-18 05:21N 29°24' W 094°44'0 0.0
2018-Jun-18 04:55N 29°24' W 094°44'0 0.0
2018-Jun-18 04:17N 29°24' W 094°44'0 0.0
2018-Jun-18 03:59N 29°24' W 094°44'0 0.0
2018-Jun-18 03:27N 29°24' W 094°44'0 0.0
2018-Jun-18 01:32N 29°24' W 094°44'0 0.0
2018-Jun-18 00:34N 29°24' W 094°44'0 0.0
2018-Jun-18 00:26N 29°24' W 094°44'0 0.0
2018-Jun-17 23:55N 29°24' W 094°44'0 0.0
2018-Jun-17 23:24N 29°24' W 094°44'0 0.0
2018-Jun-17 22:55N 29°24' W 094°44'0 0.0
2018-Jun-17 22:27N 29°24' W 094°44'0 0.0
2018-Jun-17 21:59N 29°24' W 094°44'0 0.0
2018-Jun-17 21:29N 29°24' W 094°44'0 0.0
2018-Jun-17 18:50N 29°24' W 094°44'0 0.0
2018-Jun-17 18:00N 29°24' W 094°44'0 0.0
2018-Jun-17 16:46N 29°24' W 094°44'0 0.0
2018-Jun-17 16:24N 29°24' W 094°44'0 0.0
2018-Jun-17 16:00N 29°24' W 094°44'0 0.0
2018-Jun-16 22:55N 29°24' W 094°44'0 0.0
2018-Jun-16 22:11N 29°24' W 094°44'0 0.0
2018-Jun-16 21:59N 29°24' W 094°44'0 0.0
2018-Jun-16 21:24N 29°24' W 094°44'0 0.0
2018-Jun-16 20:59N 29°24' W 094°44'0 0.0
2018-Jun-16 20:30N 29°24' W 094°44'0 0.0
2018-Jun-16 19:15N 29°24' W 094°44'0 0.0
2018-Jun-16 18:53N 29°24' W 094°44'0 0.0
2018-Jun-16 18:28N 29°24' W 094°44'0 0.0
2018-Jun-16 17:58N 29°24' W 094°44'0 0.0
2018-Jun-16 17:26N 29°24' W 094°44'0 0.0
2018-Jun-16 16:57N 29°24' W 094°44'0 0.0
2018-Jun-16 16:28N 29°24' W 094°44'0 0.0
2018-Jun-16 15:56N 29°24' W 094°44'0 0.0
2018-Jun-16 15:19N 29°24' W 094°44'0 0.0
2018-Jun-16 15:00N 29°24' W 094°44'0 0.0
2018-Jun-16 14:28N 29°24' W 094°44'0 0.0
2018-Jun-16 13:45N 29°24' W 094°44'0 0.0
2018-Jun-16 13:20N 29°24' W 094°44'0 0.0
2018-Jun-16 12:56N 29°24' W 094°44'0 0.0
2018-Jun-16 12:30N 29°24' W 094°44'0 0.0
2018-Jun-16 11:57N 29°24' W 094°44'0 0.0
2018-Jun-16 08:58N 29°24' W 094°44'0 0.0
2018-Jun-16 08:29N 29°24' W 094°44'0 0.0
2018-Jun-16 07:50N 29°24' W 094°44'0 0.0
2018-Jun-16 07:30N 29°24' W 094°44'0 0.0
2018-Jun-16 06:54N 29°24' W 094°44'0 0.0
2018-Jun-16 05:34N 29°24' W 094°44'0 0.0
2018-Jun-16 04:38N 29°24' W 094°44'0 0.0
2018-Jun-16 02:28N 29°24' W 094°44'0 0.0
2018-Jun-16 01:59N 29°24' W 094°44'0 0.0
2018-Jun-16 00:54N 29°24' W 094°44'0 0.2
2018-Jun-16 00:29N 29°24' W 094°45'1 1.4
2018-Jun-15 23:57N 29°24' W 094°45'1 2.6
2018-Jun-15 23:30N 29°23' W 094°46'1 2.2
2018-Jun-15 23:00N 29°24' W 094°45'1 1.8
2018-Jun-15 22:30N 29°24' W 094°44'0 0.0
2018-Jun-15 22:00N 29°24' W 094°44'2 3.7
2018-Jun-15 21:29N 29°23' W 094°46'0 0.2
2018-Jun-15 21:00N 29°23' W 094°46'0 0.0
2018-Jun-15 20:30N 29°23' W 094°46'0 0.0
2018-Jun-15 20:00N 29°23' W 094°46'0 0.0
2018-Jun-15 19:30N 29°23' W 094°46'0 0.0
2018-Jun-15 19:00N 29°23' W 094°46'0 0.0
2018-Jun-15 18:30N 29°23' W 094°46'0 0.0
2018-Jun-15 18:00N 29°23' W 094°46'0 0.0
2018-Jun-15 17:30N 29°23' W 094°46'0 0.0
2018-Jun-15 17:00N 29°23' W 094°46'0 0.0
2018-Jun-15 16:30N 29°23' W 094°46'0 0.0
2018-Jun-15 16:00N 29°23' W 094°46'0 0.0
2018-Jun-15 14:59N 29°23' W 094°46'2 4.1
2018-Jun-15 14:30N 29°24' W 094°44'0 0.0
2018-Jun-15 12:14N 29°24' W 094°44'0 0.0
2018-Jun-15 12:00N 29°24' W 094°44'0 0.0
2018-Jun-15 10:27N 29°24' W 094°44'0 0.0
2018-Jun-15 09:43N 29°24' W 094°44'0 0.0
2018-Jun-15 09:24N 29°24' W 094°44'0 0.0
2018-Jun-15 09:00N 29°24' W 094°44'0 0.0
2018-Jun-15 08:25N 29°24' W 094°44'0 0.0
2018-Jun-15 07:49N 29°24' W 094°44'0 0.0
2018-Jun-15 07:25N 29°24' W 094°44'0 0.0
2018-Jun-15 06:54N 29°24' W 094°44'0 0.0
2018-Jun-15 06:10N 29°24' W 094°44'0 0.0
2018-Jun-15 05:31N 29°24' W 094°44'0 0.0
2018-Jun-15 05:24N 29°24' W 094°44'0 0.0
2018-Jun-15 04:59N 29°24' W 094°44'0 0.0
2018-Jun-15 04:28N 29°24' W 094°44'0 0.0
2018-Jun-15 03:58N 29°24' W 094°44'0 0.0
2018-Jun-15 03:28N 29°24' W 094°44'0 0.0
2018-Jun-15 02:59N 29°24' W 094°44'0 0.0
2018-Jun-15 02:22N 29°24' W 094°44'0 0.0
2018-Jun-15 01:56N 29°24' W 094°44'0 0.0
2018-Jun-15 01:27N 29°24' W 094°44'0 0.0
2018-Jun-15 00:58N 29°24' W 094°44'0 0.0
2018-Jun-15 00:27N 29°24' W 094°44'0 0.0
2018-Jun-14 23:58N 29°24' W 094°44'0 0.0
2018-Jun-14 22:53N 29°24' W 094°44'0 0.0
2018-Jun-14 22:30N 29°24' W 094°44'0 0.0
2018-Jun-14 21:59N 29°24' W 094°44'0 0.0
2018-Jun-14 21:21N 29°24' W 094°44'0 0.0
2018-Jun-14 20:47N 29°24' W 094°44'0 0.0
2018-Jun-14 20:27N 29°24' W 094°44'0 0.0
2018-Jun-14 19:48N 29°24' W 094°44'0 0.0
2018-Jun-14 19:27N 29°24' W 094°44'0 0.0
2018-Jun-14 19:00N 29°24' W 094°44'0 0.0
2018-Jun-14 18:29N 29°24' W 094°44'1 1.1
2018-Jun-14 17:54N 29°24' W 094°45'1 3.4
2018-Jun-14 17:30N 29°23' W 094°46'0 0.0
2018-Jun-14 17:00N 29°23' W 094°46'0 0.0
2018-Jun-14 16:30N 29°23' W 094°46'0 0.0
2018-Jun-14 16:00N 29°23' W 094°46'0 0.0
2018-Jun-14 15:30N 29°23' W 094°46'0 0.0
2018-Jun-14 15:00N 29°23' W 094°46'0 0.0
2018-Jun-14 14:30N 29°23' W 094°46'2 3.7
2018-Jun-14 13:58N 29°24' W 094°44'0 0.0
2018-Jun-14 12:58N 29°24' W 094°44'0 0.0
2018-Jun-14 11:50N 29°24' W 094°44'0 0.0
2018-Jun-14 10:50N 29°24' W 094°44'0 0.0
2018-Jun-14 10:01N 29°24' W 094°44'0 0.0
2018-Jun-14 09:45N 29°24' W 094°44'0 0.0
2018-Jun-14 09:25N 29°24' W 094°44'0 0.0
2018-Jun-14 08:58N 29°24' W 094°44'0 0.0
2018-Jun-14 08:11N 29°24' W 094°44'0 0.0
2018-Jun-14 07:58N 29°24' W 094°44'0 0.0
2018-Jun-14 07:27N 29°24' W 094°44'0 0.0
2018-Jun-14 06:59N 29°24' W 094°44'0 0.0
2018-Jun-14 06:27N 29°24' W 094°44'0 0.0
2018-Jun-14 05:49N 29°24' W 094°44'0 0.0
2018-Jun-14 05:30N 29°24' W 094°44'0 0.0
2018-Jun-14 04:59N 29°24' W 094°44'0 0.0
2018-Jun-14 04:30N 29°24' W 094°44'0 0.0
2018-Jun-14 04:00N 29°24' W 094°44'0 0.0
2018-Jun-14 03:28N 29°24' W 094°44'0 0.0
2018-Jun-14 02:57N 29°24' W 094°44'0 0.0
2018-Jun-14 02:28N 29°24' W 094°44'0 0.0
2018-Jun-14 01:52N 29°24' W 094°44'0 0.0
2018-Jun-14 01:29N 29°24' W 094°44'0 0.0
2018-Jun-14 01:00N 29°24' W 094°44'0 0.0
2018-Jun-14 00:29N 29°24' W 094°44'0 0.0
2018-Jun-14 00:00N 29°24' W 094°44'0 0.0
2018-Jun-13 23:23N 29°24' W 094°44'0 0.0
2018-Jun-13 22:58N 29°24' W 094°44'0 0.0
2018-Jun-13 22:22N 29°24' W 094°44'0 0.0
2018-Jun-13 21:55N 29°24' W 094°44'0 0.0
2018-Jun-13 21:30N 29°24' W 094°44'1 2.4
2018-Jun-13 20:59N 29°24' W 094°46'1 1.6
2018-Jun-13 20:30N 29°23' W 094°46'0 0.0
2018-Jun-13 20:00N 29°23' W 094°46'2 3.8
2018-Jun-13 19:29N 29°24' W 094°44'0 0.0
2018-Jun-13 18:59N 29°24' W 094°44'0 0.0
2018-Jun-13 18:28N 29°24' W 094°44'0 0.0
2018-Jun-13 17:54N 29°24' W 094°44'0 0.0
2018-Jun-13 16:58N 29°24' W 094°44'0 0.0
2018-Jun-13 16:30N 29°24' W 094°44'0 0.0
2018-Jun-13 15:56N 29°24' W 094°44'15 4.3
2018-Jun-13 12:22N 29°32' W 094°29'2 3.9
2018-Jun-13 11:57N 29°33' W 094°28'3 5.4
2018-Jun-13 11:28N 29°34' W 094°25'2 4.8
2018-Jun-13 11:00N 29°36' W 094°24'3 5.3
2018-Jun-13 10:30N 29°37' W 094°21'3 5.9
2018-Jun-13 10:00N 29°38' W 094°18'3 5.3
2018-Jun-13 09:30N 29°39' W 094°15'3 5.9
2018-Jun-13 09:00N 29°41' W 094°12'3 5.2
2018-Jun-13 08:30N 29°41' W 094°09'3 5.8
2018-Jun-13 08:00N 29°43' W 094°07'2 4.6
2018-Jun-13 07:30N 29°45' W 094°05'3 5.1
2018-Jun-13 07:00N 29°46' W 094°02'3 6.2
2018-Jun-13 06:30N 29°48' W 093°60'1 3.0
2018-Jun-13 06:01N 29°49' W 093°59'0 0.4
2018-Jun-13 05:30N 29°49' W 093°58'0 0.0
2018-Jun-13 04:59N 29°49' W 093°58'1 1.1
2018-Jun-13 04:30N 29°49' W 093°59'2 4.8
2018-Jun-13 04:00N 29°47' W 094°01'3 5.4
2018-Jun-13 03:30N 29°46' W 094°03'3 5.2
2018-Jun-13 03:00N 29°44' W 094°06'3 5.2
2018-Jun-13 02:30N 29°42' W 094°08'2 4.9
2018-Jun-13 02:00N 29°41' W 094°10'2 4.9
2018-Jun-13 01:30N 29°40' W 094°13'2 4.7
2018-Jun-13 01:00N 29°39' W 094°15'2 4.2
2018-Jun-13 00:30N 29°38' W 094°18'2 4.7
2018-Jun-13 00:00N 29°37' W 094°20'2 4.7
2018-Jun-12 23:30N 29°36' W 094°22'2 4.2
2018-Jun-12 22:57N 29°36' W 094°25'1 2.2
2018-Jun-12 22:29N 29°34' W 094°25'2 2.4
2018-Jun-12 21:44N 29°34' W 094°27'  
Track history (hours):
 
Tides and Currents Weather Stations Pressure Air Temp Water Temp Dewpoint Dewpoint Depression Visibility Wind Speed Wind Dir Waves Ship Positions

Patricia Anne

Owner: Genesis Marine, LLC, Houston, TX. More information available from US FCC via Universal Licensing System and Coast Guard Vessel Documentation Center.

Last reported at 2018-Jun-22 18:11 UTC. Time now 2018-Jun-22 18:54 UTC.
Position N 29°42' W 094°59'.

Length 26 m; draft 3 m.

Type: Towing. MMSI: 367505060.

Date/timePositionNaut miles runAvg speedWind from/ knotsBaromVisibWave heightAir tempDewpointWater temp
2018-Jun-22 18:11N 29°42' W 094°59'2 4.7
2018-Jun-22 17:41N 29°39' W 094°58'1 4.7
2018-Jun-22 17:23N 29°38' W 094°58'2 4.8
2018-Jun-22 16:58N 29°36' W 094°57'10 4.8
2018-Jun-22 14:57N 29°28' W 094°51'4 4.8
2018-Jun-22 14:10N 29°25' W 094°49'1 5.1
2018-Jun-22 14:00N 29°24' W 094°49'2 4.2
2018-Jun-22 13:30N 29°22' W 094°49'3 5.3
2018-Jun-22 13:00N 29°23' W 094°52'2 3.6
2018-Jun-22 12:30N 29°22' W 094°53'1 1.9
2018-Jun-22 11:58N 29°22' W 094°55'0 0.0
2018-Jun-22 11:30N 29°22' W 094°55'0 0.0
2018-Jun-22 11:01N 29°22' W 094°55'0 0.0
2018-Jun-22 10:30N 29°22' W 094°55'0 0.0
2018-Jun-22 10:00N 29°22' W 094°55'0 0.0
2018-Jun-22 09:30N 29°22' W 094°55'0 0.0
2018-Jun-22 08:59N 29°22' W 094°55'0 0.0
2018-Jun-22 08:30N 29°22' W 094°55'0 0.0
2018-Jun-22 08:00N 29°22' W 094°55'0 0.0
2018-Jun-22 07:30N 29°22' W 094°55'0 0.0
2018-Jun-22 07:00N 29°22' W 094°55'0 0.0
2018-Jun-22 06:30N 29°22' W 094°55'0 0.0
2018-Jun-22 06:01N 29°22' W 094°55'0 0.0
2018-Jun-22 05:30N 29°22' W 094°55'0 0.0
2018-Jun-22 05:01N 29°22' W 094°55'0 0.0
2018-Jun-22 04:30N 29°22' W 094°55'0 0.0
2018-Jun-22 04:00N 29°22' W 094°55'0 0.0
2018-Jun-22 03:29N 29°22' W 094°55'0 0.0
2018-Jun-22 03:00N 29°22' W 094°55'0 0.0
2018-Jun-22 02:30N 29°22' W 094°55'0 0.0
2018-Jun-22 02:00N 29°22' W 094°55'0 0.0
2018-Jun-22 01:30N 29°22' W 094°55'0 0.0
2018-Jun-22 01:00N 29°22' W 094°55'0 0.0
2018-Jun-22 00:30N 29°22' W 094°55'0 0.0
2018-Jun-21 23:59N 29°22' W 094°55'0 0.0
2018-Jun-21 23:30N 29°22' W 094°55'0 0.0
2018-Jun-21 23:00N 29°22' W 094°55'0 0.0
2018-Jun-21 22:30N 29°22' W 094°55'0 0.0
2018-Jun-21 22:00N 29°22' W 094°55'0 0.0
2018-Jun-21 21:30N 29°22' W 094°55'0 0.0
2018-Jun-21 21:00N 29°22' W 094°55'0 0.0
2018-Jun-21 20:30N 29°22' W 094°55'0 0.0
2018-Jun-21 19:59N 29°22' W 094°55'0 0.0
2018-Jun-21 19:30N 29°22' W 094°55'0 0.0
2018-Jun-21 19:00N 29°22' W 094°55'0 0.0
2018-Jun-21 18:30N 29°22' W 094°55'0 0.0
2018-Jun-21 18:00N 29°22' W 094°55'0 0.0
2018-Jun-21 17:29N 29°22' W 094°55'0 0.0
2018-Jun-21 17:00N 29°22' W 094°55'1 2.7
2018-Jun-21 16:30N 29°22' W 094°53'3 5.6
2018-Jun-21 16:00N 29°22' W 094°50'3 6.2
2018-Jun-21 15:30N 29°23' W 094°47'3 5.2
2018-Jun-21 14:59N 29°25' W 094°44'0 0.4
2018-Jun-21 14:30N 29°25' W 094°44'0 0.0
2018-Jun-21 14:00N 29°25' W 094°44'0 0.0
2018-Jun-21 13:30N 29°25' W 094°44'0 0.0
2018-Jun-21 13:00N 29°25' W 094°44'0 0.1
2018-Jun-21 12:30N 29°25' W 094°44'0 0.0
2018-Jun-21 08:46N 29°24' W 094°44'0 0.0
2018-Jun-21 08:28N 29°24' W 094°44'0 0.0
2018-Jun-21 07:48N 29°24' W 094°44'0 0.0
2018-Jun-21 07:25N 29°24' W 094°44'0 0.0
2018-Jun-21 06:55N 29°24' W 094°44'0 0.0
2018-Jun-21 06:28N 29°24' W 094°44'0 0.0
2018-Jun-21 05:49N 29°24' W 094°44'0 0.0
2018-Jun-21 05:26N 29°24' W 094°44'0 0.0
2018-Jun-21 05:00N 29°24' W 094°44'0 0.0
2018-Jun-21 04:23N 29°24' W 094°44'1 1.6
2018-Jun-21 03:58N 29°24' W 094°45'1 3.0
2018-Jun-21 03:30N 29°23' W 094°46'0 0.0
2018-Jun-21 03:00N 29°23' W 094°46'0 0.0
2018-Jun-21 02:30N 29°23' W 094°46'0 0.0
2018-Jun-21 02:00N 29°23' W 094°46'0 0.0
2018-Jun-21 01:30N 29°23' W 094°46'0 0.0
2018-Jun-21 01:00N 29°23' W 094°46'0 0.0
2018-Jun-21 00:29N 29°23' W 094°46'0 0.0
2018-Jun-20 23:57N 29°23' W 094°46'0 0.0
2018-Jun-20 23:30N 29°23' W 094°46'0 0.0
2018-Jun-20 22:55N 29°23' W 094°46'0 0.0
2018-Jun-20 22:30N 29°23' W 094°46'0 0.0
2018-Jun-20 22:00N 29°23' W 094°46'0 0.0
2018-Jun-20 21:30N 29°23' W 094°46'0 0.0
2018-Jun-20 21:00N 29°23' W 094°46'0 0.0
2018-Jun-20 20:30N 29°23' W 094°46'0 0.0
2018-Jun-20 20:00N 29°23' W 094°46'0 0.0
2018-Jun-20 19:30N 29°23' W 094°46'0 0.0
2018-Jun-20 18:57N 29°23' W 094°46'0 0.0
2018-Jun-20 18:30N 29°23' W 094°46'0 0.0
2018-Jun-20 18:00N 29°23' W 094°46'0 0.0
2018-Jun-20 17:30N 29°23' W 094°46'0 0.0
2018-Jun-20 17:00N 29°23' W 094°46'0 0.0
2018-Jun-20 16:30N 29°23' W 094°46'0 0.0
2018-Jun-20 16:00N 29°23' W 094°46'0 0.0
2018-Jun-20 15:30N 29°23' W 094°46'2 0.8
2018-Jun-20 12:46N 29°24' W 094°44'0 0.0
2018-Jun-20 10:47N 29°24' W 094°44'0 0.0
2018-Jun-20 09:55N 29°24' W 094°44'0 0.0
2018-Jun-20 09:28N 29°24' W 094°44'0 0.0
2018-Jun-20 09:00N 29°24' W 094°44'0 0.0
2018-Jun-20 08:30N 29°24' W 094°44'0 0.0
2018-Jun-20 07:59N 29°24' W 094°44'0 0.0
2018-Jun-20 01:25N 29°24' W 094°44'0 0.0
2018-Jun-20 00:56N 29°24' W 094°44'0 0.0
2018-Jun-20 00:30N 29°24' W 094°44'0 0.0
2018-Jun-19 23:46N 29°24' W 094°44'0 0.0
2018-Jun-19 23:23N 29°24' W 094°44'0 0.0
2018-Jun-19 22:38N 29°24' W 094°44'0 0.0
2018-Jun-19 22:30N 29°24' W 094°44'0 0.0
2018-Jun-19 21:39N 29°24' W 094°44'0 0.0
2018-Jun-19 21:30N 29°24' W 094°44'0 0.0
2018-Jun-19 21:00N 29°24' W 094°44'0 0.3
2018-Jun-19 20:30N 29°24' W 094°45'0 0.0
2018-Jun-19 19:58N 29°24' W 094°45'0 0.0
2018-Jun-19 19:30N 29°24' W 094°45'0 0.0
2018-Jun-19 18:59N 29°24' W 094°45'0 0.3
2018-Jun-19 18:30N 29°24' W 094°44'0 0.0
2018-Jun-19 18:00N 29°24' W 094°44'0 0.0
2018-Jun-19 17:25N 29°24' W 094°44'0 0.0
2018-Jun-19 16:58N 29°24' W 094°44'0 0.0
2018-Jun-19 16:29N 29°24' W 094°44'0 0.0
2018-Jun-19 15:50N 29°24' W 094°44'0 0.0
2018-Jun-19 09:23N 29°24' W 094°44'0 0.0
2018-Jun-19 08:58N 29°24' W 094°44'0 0.0
2018-Jun-19 08:29N 29°24' W 094°44'0 0.0
2018-Jun-19 07:47N 29°24' W 094°44'0 0.0
2018-Jun-19 07:22N 29°24' W 094°44'0 0.0
2018-Jun-19 06:56N 29°24' W 094°44'0 0.0
2018-Jun-19 06:27N 29°24' W 094°44'0 0.0
2018-Jun-19 05:59N 29°24' W 094°44'0 0.0
2018-Jun-19 04:02N 29°24' W 094°44'0 0.0
2018-Jun-19 03:59N 29°24' W 094°44'0 0.0
2018-Jun-19 03:28N 29°24' W 094°44'0 0.0
2018-Jun-19 02:55N 29°24' W 094°44'0 0.0
2018-Jun-19 02:23N 29°24' W 094°44'0 0.0
2018-Jun-19 01:52N 29°24' W 094°44'0 0.0
2018-Jun-19 01:25N 29°24' W 094°44'0 0.0
2018-Jun-19 00:21N 29°24' W 094°44'0 0.0
2018-Jun-18 23:59N 29°24' W 094°44'0 0.0
2018-Jun-18 23:27N 29°24' W 094°44'0 0.0
2018-Jun-18 22:59N 29°24' W 094°44'0 0.0
2018-Jun-18 22:30N 29°24' W 094°44'0 0.0
2018-Jun-18 21:57N 29°24' W 094°44'0 0.0
2018-Jun-18 21:29N 29°24' W 094°44'0 0.0
2018-Jun-18 20:58N 29°24' W 094°44'0 0.0
2018-Jun-18 20:30N 29°24' W 094°44'0 0.0
2018-Jun-18 19:58N 29°24' W 094°44'0 0.0
2018-Jun-18 19:24N 29°24' W 094°44'1 2.7
2018-Jun-18 18:55N 29°24' W 094°46'0 0.6
2018-Jun-18 18:30N 29°24' W 094°45'1 0.7
2018-Jun-18 17:04N 29°24' W 094°44'0 0.0
2018-Jun-18 16:47N 29°24' W 094°44'0 0.0
2018-Jun-18 16:30N 29°24' W 094°44'0 0.0
2018-Jun-18 15:55N 29°24' W 094°44'0 0.0
2018-Jun-18 15:30N 29°24' W 094°44'0 0.0
2018-Jun-18 14:54N 29°24' W 094°44'0 0.0
2018-Jun-18 14:29N 29°24' W 094°44'0 0.0
2018-Jun-18 13:54N 29°24' W 094°44'0 0.0
2018-Jun-18 13:29N 29°24' W 094°44'0 0.0
2018-Jun-18 12:59N 29°24' W 094°44'0 0.0
2018-Jun-18 12:26N 29°24' W 094°44'0 0.0
2018-Jun-18 12:00N 29°24' W 094°44'0 0.0
2018-Jun-18 11:27N 29°24' W 094°44'0 0.0
2018-Jun-18 10:59N 29°24' W 094°44'0 0.0
2018-Jun-18 10:30N 29°24' W 094°44'0 0.0
2018-Jun-18 09:58N 29°24' W 094°44'0 0.0
2018-Jun-18 09:26N 29°24' W 094°44'0 0.0
2018-Jun-18 08:55N 29°24' W 094°44'0 0.0
2018-Jun-18 08:30N 29°24' W 094°44'0 0.0
2018-Jun-18 07:59N 29°24' W 094°44'0 0.0
2018-Jun-18 07:28N 29°24' W 094°44'0 0.0
2018-Jun-18 07:00N 29°24' W 094°44'0 0.0
2018-Jun-18 06:08N 29°24' W 094°44'0 0.0
2018-Jun-18 05:52N 29°24' W 094°44'0 0.0
2018-Jun-18 05:21N 29°24' W 094°44'0 0.0
2018-Jun-18 04:55N 29°24' W 094°44'0 0.0
2018-Jun-18 04:17N 29°24' W 094°44'0 0.0
2018-Jun-18 03:59N 29°24' W 094°44'0 0.0
2018-Jun-18 03:27N 29°24' W 094°44'0 0.0
2018-Jun-18 01:32N 29°24' W 094°44'0 0.0
2018-Jun-18 00:34N 29°24' W 094°44'0 0.0
2018-Jun-18 00:26N 29°24' W 094°44'0 0.0
2018-Jun-17 23:55N 29°24' W 094°44'0 0.0
2018-Jun-17 23:24N 29°24' W 094°44'0 0.0
2018-Jun-17 22:55N 29°24' W 094°44'0 0.0
2018-Jun-17 22:27N 29°24' W 094°44'0 0.0
2018-Jun-17 21:59N 29°24' W 094°44'0 0.0
2018-Jun-17 21:29N 29°24' W 094°44'0 0.0
2018-Jun-17 18:50N 29°24' W 094°44'0 0.0
2018-Jun-17 18:00N 29°24' W 094°44'0 0.0
2018-Jun-17 16:46N 29°24' W 094°44'0 0.0
2018-Jun-17 16:24N 29°24' W 094°44'0 0.0
2018-Jun-17 16:00N 29°24' W 094°44'0 0.0
2018-Jun-16 22:55N 29°24' W 094°44'0 0.0
2018-Jun-16 22:11N 29°24' W 094°44'0 0.0
2018-Jun-16 21:59N 29°24' W 094°44'0 0.0
2018-Jun-16 21:24N 29°24' W 094°44'0 0.0
2018-Jun-16 20:59N 29°24' W 094°44'0 0.0
2018-Jun-16 20:30N 29°24' W 094°44'0 0.0
2018-Jun-16 19:15N 29°24' W 094°44'0 0.0
2018-Jun-16 18:53N 29°24' W 094°44'0 0.0
2018-Jun-16 18:28N 29°24' W 094°44'0 0.0
2018-Jun-16 17:58N 29°24' W 094°44'0 0.0
2018-Jun-16 17:26N 29°24' W 094°44'0 0.0
2018-Jun-16 16:57N 29°24' W 094°44'0 0.0
2018-Jun-16 16:28N 29°24' W 094°44'0 0.0
2018-Jun-16 15:56N 29°24' W 094°44'0 0.0
2018-Jun-16 15:19N 29°24' W 094°44'0 0.0
2018-Jun-16 15:00N 29°24' W 094°44'0 0.0
2018-Jun-16 14:28N 29°24' W 094°44'0 0.0
2018-Jun-16 13:45N 29°24' W 094°44'0 0.0
2018-Jun-16 13:20N 29°24' W 094°44'0 0.0
2018-Jun-16 12:56N 29°24' W 094°44'0 0.0
2018-Jun-16 12:30N 29°24' W 094°44'0 0.0
2018-Jun-16 11:57N 29°24' W 094°44'0 0.0
2018-Jun-16 08:58N 29°24' W 094°44'0 0.0
2018-Jun-16 08:29N 29°24' W 094°44'0 0.0
2018-Jun-16 07:50N 29°24' W 094°44'0 0.0
2018-Jun-16 07:30N 29°24' W 094°44'0 0.0
2018-Jun-16 06:54N 29°24' W 094°44'0 0.0
2018-Jun-16 05:34N 29°24' W 094°44'0 0.0
2018-Jun-16 04:38N 29°24' W 094°44'0 0.0
2018-Jun-16 02:28N 29°24' W 094°44'0 0.0
2018-Jun-16 01:59N 29°24' W 094°44'0 0.0
2018-Jun-16 00:54N 29°24' W 094°44'0 0.2
2018-Jun-16 00:29N 29°24' W 094°45'1 1.4
2018-Jun-15 23:57N 29°24' W 094°45'1 2.6
2018-Jun-15 23:30N 29°23' W 094°46'1 2.2
2018-Jun-15 23:00N 29°24' W 094°45'1 1.8
2018-Jun-15 22:30N 29°24' W 094°44'0 0.0
2018-Jun-15 22:00N 29°24' W 094°44'2 3.7
2018-Jun-15 21:29N 29°23' W 094°46'0 0.2
2018-Jun-15 21:00N 29°23' W 094°46'0 0.0
2018-Jun-15 20:30N 29°23' W 094°46'0 0.0
2018-Jun-15 20:00N 29°23' W 094°46'0 0.0
2018-Jun-15 19:30N 29°23' W 094°46'0 0.0
2018-Jun-15 19:00N 29°23' W 094°46'0 0.0
2018-Jun-15 18:30N 29°23' W 094°46'0 0.0
2018-Jun-15 18:00N 29°23' W 094°46'0 0.0
2018-Jun-15 17:30N 29°23' W 094°46'0 0.0
2018-Jun-15 17:00N 29°23' W 094°46'0 0.0
2018-Jun-15 16:30N 29°23' W 094°46'0 0.0
2018-Jun-15 16:00N 29°23' W 094°46'0 0.0
2018-Jun-15 14:59N 29°23' W 094°46'2 4.1
2018-Jun-15 14:30N 29°24' W 094°44'0 0.0
2018-Jun-15 12:14N 29°24' W 094°44'0 0.0
2018-Jun-15 12:00N 29°24' W 094°44'0 0.0
2018-Jun-15 10:27N 29°24' W 094°44'0 0.0
2018-Jun-15 09:43N 29°24' W 094°44'0 0.0
2018-Jun-15 09:24N 29°24' W 094°44'0 0.0
2018-Jun-15 09:00N 29°24' W 094°44'0 0.0
2018-Jun-15 08:25N 29°24' W 094°44'0 0.0
2018-Jun-15 07:49N 29°24' W 094°44'0 0.0
2018-Jun-15 07:25N 29°24' W 094°44'0 0.0
2018-Jun-15 06:54N 29°24' W 094°44'0 0.0
2018-Jun-15 06:10N 29°24' W 094°44'0 0.0
2018-Jun-15 05:31N 29°24' W 094°44'0 0.0
2018-Jun-15 05:24N 29°24' W 094°44'0 0.0
2018-Jun-15 04:59N 29°24' W 094°44'0 0.0
2018-Jun-15 04:28N 29°24' W 094°44'0 0.0
2018-Jun-15 03:58N 29°24' W 094°44'0 0.0
2018-Jun-15 03:28N 29°24' W 094°44'0 0.0
2018-Jun-15 02:59N 29°24' W 094°44'0 0.0
2018-Jun-15 02:22N 29°24' W 094°44'0 0.0
2018-Jun-15 01:56N 29°24' W 094°44'0 0.0
2018-Jun-15 01:27N 29°24' W 094°44'0 0.0
2018-Jun-15 00:58N 29°24' W 094°44'0 0.0
2018-Jun-15 00:27N 29°24' W 094°44'0 0.0
2018-Jun-14 23:58N 29°24' W 094°44'0 0.0
2018-Jun-14 22:53N 29°24' W 094°44'0 0.0
2018-Jun-14 22:30N 29°24' W 094°44'0 0.0
2018-Jun-14 21:59N 29°24' W 094°44'0 0.0
2018-Jun-14 21:21N 29°24' W 094°44'0 0.0
2018-Jun-14 20:47N 29°24' W 094°44'0 0.0
2018-Jun-14 20:27N 29°24' W 094°44'0 0.0
2018-Jun-14 19:48N 29°24' W 094°44'0 0.0
2018-Jun-14 19:27N 29°24' W 094°44'0 0.0
2018-Jun-14 19:00N 29°24' W 094°44'0 0.0
2018-Jun-14 18:29N 29°24' W 094°44'1 1.1
2018-Jun-14 17:54N 29°24' W 094°45'1 3.4
2018-Jun-14 17:30N 29°23' W 094°46'0 0.0
2018-Jun-14 17:00N 29°23' W 094°46'0 0.0
2018-Jun-14 16:30N 29°23' W 094°46'0 0.0
2018-Jun-14 16:00N 29°23' W 094°46'0 0.0
2018-Jun-14 15:30N 29°23' W 094°46'0 0.0
2018-Jun-14 15:00N 29°23' W 094°46'0 0.0
2018-Jun-14 14:30N 29°23' W 094°46'2 3.7
2018-Jun-14 13:58N 29°24' W 094°44'0 0.0
2018-Jun-14 12:58N 29°24' W 094°44'0 0.0
2018-Jun-14 11:50N 29°24' W 094°44'0 0.0
2018-Jun-14 10:50N 29°24' W 094°44'0 0.0
2018-Jun-14 10:01N 29°24' W 094°44'0 0.0
2018-Jun-14 09:45N 29°24' W 094°44'0 0.0
2018-Jun-14 09:25N 29°24' W 094°44'0 0.0
2018-Jun-14 08:58N 29°24' W 094°44'0 0.0
2018-Jun-14 08:11N 29°24' W 094°44'0 0.0
2018-Jun-14 07:58N 29°24' W 094°44'0 0.0
2018-Jun-14 07:27N 29°24' W 094°44'0 0.0
2018-Jun-14 06:59N 29°24' W 094°44'0 0.0
2018-Jun-14 06:27N 29°24' W 094°44'0 0.0
2018-Jun-14 05:49N 29°24' W 094°44'0 0.0
2018-Jun-14 05:30N 29°24' W 094°44'0 0.0
2018-Jun-14 04:59N 29°24' W 094°44'0 0.0
2018-Jun-14 04:30N 29°24' W 094°44'0 0.0
2018-Jun-14 04:00N 29°24' W 094°44'0 0.0
2018-Jun-14 03:28N 29°24' W 094°44'0 0.0
2018-Jun-14 02:57N 29°24' W 094°44'0 0.0
2018-Jun-14 02:28N 29°24' W 094°44'0 0.0
2018-Jun-14 01:52N 29°24' W 094°44'0 0.0
2018-Jun-14 01:29N 29°24' W 094°44'0 0.0
2018-Jun-14 01:00N 29°24' W 094°44'0 0.0
2018-Jun-14 00:29N 29°24' W 094°44'0 0.0
2018-Jun-14 00:00N 29°24' W 094°44'0 0.0
2018-Jun-13 23:23N 29°24' W 094°44'0 0.0
2018-Jun-13 22:58N 29°24' W 094°44'0 0.0
2018-Jun-13 22:22N 29°24' W 094°44'0 0.0
2018-Jun-13 21:55N 29°24' W 094°44'0 0.0
2018-Jun-13 21:30N 29°24' W 094°44'1 2.4
2018-Jun-13 20:59N 29°24' W 094°46'1 1.6
2018-Jun-13 20:30N 29°23' W 094°46'0 0.0
2018-Jun-13 20:00N 29°23' W 094°46'2 3.8
2018-Jun-13 19:29N 29°24' W 094°44'0 0.0
2018-Jun-13 18:59N 29°24' W 094°44'0 0.0
2018-Jun-13 18:28N 29°24' W 094°44'0 0.0
2018-Jun-13 17:54N 29°24' W 094°44'0 0.0
2018-Jun-13 16:58N 29°24' W 094°44'0 0.0
2018-Jun-13 16:30N 29°24' W 094°44'0 0.0
2018-Jun-13 15:56N 29°24' W 094°44'15 4.3
2018-Jun-13 12:22N 29°32' W 094°29'2 3.9
2018-Jun-13 11:57N 29°33' W 094°28'3 5.4
2018-Jun-13 11:28N 29°34' W 094°25'2 4.8
2018-Jun-13 11:00N 29°36' W 094°24'3 5.3
2018-Jun-13 10:30N 29°37' W 094°21'3 5.9
2018-Jun-13 10:00N 29°38' W 094°18'3 5.3
2018-Jun-13 09:30N 29°39' W 094°15'3 5.9
2018-Jun-13 09:00N 29°41' W 094°12'3 5.2
2018-Jun-13 08:30N 29°41' W 094°09'3 5.8
2018-Jun-13 08:00N 29°43' W 094°07'2 4.6
2018-Jun-13 07:30N 29°45' W 094°05'3 5.1
2018-Jun-13 07:00N 29°46' W 094°02'3 6.2
2018-Jun-13 06:30N 29°48' W 093°60'1 3.0
2018-Jun-13 06:01N 29°49' W 093°59'0 0.4
2018-Jun-13 05:30N 29°49' W 093°58'0 0.0
2018-Jun-13 04:59N 29°49' W 093°58'1 1.1
2018-Jun-13 04:30N 29°49' W 093°59'2 4.8
2018-Jun-13 04:00N 29°47' W 094°01'3 5.4
2018-Jun-13 03:30N 29°46' W 094°03'3 5.2
2018-Jun-13 03:00N 29°44' W 094°06'3 5.2
2018-Jun-13 02:30N 29°42' W 094°08'2 4.9
2018-Jun-13 02:00N 29°41' W 094°10'2 4.9
2018-Jun-13 01:30N 29°40' W 094°13'2 4.7
2018-Jun-13 01:00N 29°39' W 094°15'2 4.2
2018-Jun-13 00:30N 29°38' W 094°18'2 4.7
2018-Jun-13 00:00N 29°37' W 094°20'2 4.7
2018-Jun-12 23:30N 29°36' W 094°22'2 4.2
2018-Jun-12 22:57N 29°36' W 094°25'1 2.2
2018-Jun-12 22:29N 29°34' W 094°25'2 2.4
2018-Jun-12 21:44N 29°34' W 094°27'  

Dump ship's entire track history